Time;durP1;ratioP1;P1;durP2;ratioP2;P2;SDS_P1;SDS_P2;PMS_P1;PMS_P2;Temp;Humidity;BMP_temperature;BMP_pressure;BME280_temperature;BME280_humidity;BME280_pressure;Samples;Min_cycle;Max_cycle;Signal;HPM_P1;HPM_P2
2021/03/10 00:02:25;;;;;;;;;;;5.00;99.90;;;;;;5073709;28;20007;-75
2021/03/10 00:04:50;;;;;;;;;;;5.20;99.90;;;;;;5095307;28;19952;-72
2021/03/10 00:07:16;;;;;;;;;;;5.20;99.90;;;;;;5085091;28;20003;-74
2021/03/10 00:09:41;;;;;;;;;;;5.10;99.90;;;;;;5089355;28;19915;-73
2021/03/10 00:12:07;;;;;;;;;;;5.20;99.90;;;;;;5075987;28;20050;-74
2021/03/10 00:14:33;;;;;;;;;;;5.10;99.90;;;;;;5073690;28;19930;-74
2021/03/10 00:16:59;;;;;;;;;;;5.10;99.90;;;;;;5061231;28;20359;-72
2021/03/10 00:19:25;;;;;;;;;;;5.20;99.90;;;;;;5071995;28;19920;-73
2021/03/10 00:21:51;;;;;;;;;;;5.10;99.90;;;;;;5072095;28;19912;-73
2021/03/10 00:24:16;;;;;;;;;;;5.20;99.90;;;;;;5073353;28;20275;-74
2021/03/10 00:26:43;;;;;;;;;;;5.10;99.90;;;;;;5059059;28;20015;-73
2021/03/10 00:29:09;;;;;;;;;;;5.00;99.90;;;;;;5074966;28;20463;-71
2021/03/10 00:31:35;;;;;;;;;;;5.10;99.90;;;;;;5077057;28;19936;-72
2021/03/10 00:34:01;;;;;;;;;;;5.20;99.90;;;;;;5075044;28;20274;-71
2021/03/10 00:36:26;;;;;;;;;;;5.20;99.90;;;;;;5074620;28;19915;-72
2021/03/10 00:38:52;;;;;;;;;;;5.00;99.90;;;;;;5074658;28;19961;-71
2021/03/10 00:41:17;;;;;;;;;;;5.00;99.90;;;;;;5073284;28;19963;-71
2021/03/10 00:43:43;;;;;;;;;;;5.00;99.90;;;;;;5054955;28;19905;-71
2021/03/10 00:46:08;;;;;;;;;;;5.10;99.90;;;;;;5073143;28;19958;-73
2021/03/10 00:48:34;;;;;;;;;;;5.00;99.90;;;;;;5075301;28;19905;-73
2021/03/10 00:51:00;;;;;;;;;;;4.90;99.90;;;;;;5075881;28;19904;-72
2021/03/10 00:53:25;;;;;;;;;;;5.00;99.90;;;;;;5074007;28;20002;-72
2021/03/10 00:55:51;;;;;;;;;;;4.90;99.90;;;;;;5083883;28;20357;-71
2021/03/10 00:58:16;;;;;;;;;;;4.90;99.90;;;;;;5092980;28;19908;-72
2021/03/10 01:00:42;;;;;;;;;;;4.90;99.90;;;;;;5093662;28;19908;-71
2021/03/10 01:03:08;;;;;;;;;;;4.80;99.90;;;;;;5093182;28;19911;-71
2021/03/10 01:05:33;;;;;;;;;;;4.80;99.90;;;;;;5075623;28;19908;-72
2021/03/10 01:07:59;;;;;;;;;;;4.80;99.90;;;;;;5093657;28;19918;-72
2021/03/10 01:10:25;;;;;;;;;;;4.70;99.90;;;;;;5092920;28;20365;-71
2021/03/10 01:12:51;;;;;;;;;;;4.80;99.90;;;;;;5093612;28;19904;-71
2021/03/10 01:15:18;;;;;;;;;;;4.70;99.90;;;;;;5093526;28;19916;-71
2021/03/10 01:17:44;;;;;;;;;;;4.70;99.90;;;;;;5092872;28;19958;-71
2021/03/10 01:20:11;;;;;;;;;;;4.60;99.90;;;;;;5093340;28;19908;-70
2021/03/10 01:22:37;;;;;;;;;;;4.70;99.90;;;;;;5093748;28;19980;-71
2021/03/10 01:25:03;;;;;;;;;;;4.60;99.90;;;;;;5093079;28;19904;-71
2021/03/10 01:27:29;;;;;;;;;;;4.50;99.90;;;;;;5075101;28;19952;-70
2021/03/10 01:29:54;;;;;;;;;;;4.50;99.90;;;;;;5093815;28;19907;-71
2021/03/10 01:32:20;;;;;;;;;;;4.50;99.90;;;;;;5096685;28;19911;-71
2021/03/10 01:34:45;;;;;;;;;;;4.40;99.90;;;;;;5078936;28;19908;-72
2021/03/10 01:37:11;;;;;;;;;;;4.40;99.90;;;;;;5096755;28;19908;-72
2021/03/10 01:39:37;;;;;;;;;;;4.40;99.90;;;;;;5096910;28;20262;-72
2021/03/10 01:42:03;;;;;;;;;;;4.30;99.90;;;;;;5097051;28;19904;-71
2021/03/10 01:44:29;;;;;;;;;;;4.40;99.90;;;;;;5097110;28;19904;-72
2021/03/10 01:46:55;;;;;;;;;;;4.50;99.90;;;;;;5096774;28;19991;-72
2021/03/10 01:49:21;;;;;;;;;;;4.40;99.90;;;;;;5096721;28;20338;-70
2021/03/10 01:51:46;;;;;;;;;;;4.50;99.90;;;;;;5096614;28;19912;-73
2021/03/10 01:54:12;;;;;;;;;;;4.40;99.90;;;;;;5085608;28;19913;-73
2021/03/10 01:56:39;;;;;;;;;;;4.50;99.90;;;;;;5093668;28;19961;-71
2021/03/10 01:59:04;;;;;;;;;;;4.40;99.90;;;;;;5096940;28;19947;-72
2021/03/10 02:01:30;;;;;;;;;;;4.40;99.90;;;;;;5097575;28;19911;-72
2021/03/10 02:03:56;;;;;;;;;;;4.30;99.90;;;;;;5097334;28;20308;-73
2021/03/10 02:06:36;;;;;;;;;;;4.30;99.90;;;;;;5096802;28;20345;-71
2021/03/10 02:09:06;;;;;;;;;;;4.40;99.90;;;;;;5083565;28;19904;-72
2021/03/10 02:11:33;;;;;;;;;;;4.40;99.90;;;;;;5096690;28;19911;-73
2021/03/10 02:14:08;;;;;;;;;;;4.40;99.90;;;;;;5096462;28;19924;-73
2021/03/10 02:16:50;;;;;;;;;;;4.30;99.90;;;;;;5097068;28;19904;-73
2021/03/10 02:19:33;;;;;;;;;;;4.40;99.90;;;;;;5083674;28;19958;-72
2021/03/10 02:22:05;;;;;;;;;;;4.40;99.90;;;;;;5096934;28;19911;-72
2021/03/10 02:24:54;;;;;;;;;;;4.50;99.90;;;;;;5078376;28;19946;-72
2021/03/10 02:27:38;;;;;;;;;;;4.50;99.90;;;;;;5096732;28;19904;-71
2021/03/10 02:30:05;;;;;;;;;;;4.50;99.90;;;;;;5096812;28;19904;-72
2021/03/10 02:32:33;;;;;;;;;;;4.50;99.90;;;;;;5096784;28;19911;-71
2021/03/10 02:35:00;;;;;;;;;;;4.40;99.90;;;;;;5078062;28;19913;-71
2021/03/10 02:37:26;;;;;;;;;;;4.20;99.90;;;;;;5096114;28;19918;-72
2021/03/10 02:39:52;;;;;;;;;;;4.30;99.90;;;;;;5096919;28;19912;-72
2021/03/10 02:42:18;;;;;;;;;;;4.30;99.90;;;;;;5095126;28;19911;-71
2021/03/10 02:44:44;;;;;;;;;;;4.30;99.90;;;;;;5077703;28;19951;-73
2021/03/10 02:47:10;;;;;;;;;;;4.20;99.90;;;;;;5095460;28;19904;-72
2021/03/10 02:49:36;;;;;;;;;;;4.20;99.90;;;;;;5095644;28;19908;-73
2021/03/10 02:52:02;;;;;;;;;;;4.10;99.90;;;;;;5096953;28;19926;-73
2021/03/10 02:54:29;;;;;;;;;;;4.10;99.90;;;;;;5083535;28;19910;-73
2021/03/10 02:56:54;;;;;;;;;;;4.00;99.90;;;;;;5095793;28;19966;-73
2021/03/10 02:59:20;;;;;;;;;;;4.00;99.90;;;;;;5096219;28;19908;-74
2021/03/10 03:01:46;;;;;;;;;;;4.10;99.90;;;;;;5095042;28;19908;-73
2021/03/10 03:04:11;;;;;;;;;;;4.00;99.90;;;;;;5094947;28;20377;-72
2021/03/10 03:06:37;;;;;;;;;;;4.00;99.90;;;;;;5095077;28;20376;-71
2021/03/10 03:09:05;;;;;;;;;;;4.00;99.90;;;;;;5095097;28;19911;-71
2021/03/10 03:11:31;;;;;;;;;;;4.00;99.90;;;;;;5095165;28;19904;-72
2021/03/10 03:13:58;;;;;;;;;;;4.20;99.90;;;;;;5095256;28;19904;-71
2021/03/10 03:16:26;;;;;;;;;;;4.30;99.90;;;;;;5095178;28;19911;-72
2021/03/10 03:18:51;;;;;;;;;;;4.30;99.90;;;;;;5095763;28;20002;-70
2021/03/10 03:21:17;;;;;;;;;;;4.30;99.90;;;;;;5095487;28;20427;-73
2021/03/10 03:23:43;;;;;;;;;;;4.40;99.90;;;;;;5076598;28;20288;-74
2021/03/10 03:26:09;;;;;;;;;;;4.40;99.90;;;;;;5095389;28;19908;-73
2021/03/10 03:28:35;;;;;;;;;;;4.50;99.90;;;;;;5095091;28;19950;-72
2021/03/10 03:31:00;;;;;;;;;;;4.50;99.90;;;;;;5094740;28;20354;-72
2021/03/10 03:33:27;;;;;;;;;;;4.40;99.90;;;;;;5095115;28;19914;-71
2021/03/10 03:35:55;;;;;;;;;;;4.50;99.90;;;;;;5094775;28;19940;-69
2021/03/10 03:38:21;;;;;;;;;;;4.50;99.90;;;;;;5094157;28;19911;-70
2021/03/10 03:40:50;;;;;;;;;;;4.50;99.90;;;;;;5094932;28;19930;-70
2021/03/10 03:43:16;;;;;;;;;;;4.50;99.90;;;;;;5076771;28;20410;-71
2021/03/10 03:45:42;;;;;;;;;;;4.70;99.90;;;;;;5094230;28;19904;-71
2021/03/10 03:48:08;;;;;;;;;;;4.50;99.90;;;;;;5094348;28;20277;-73
2021/03/10 03:50:34;;;;;;;;;;;4.40;99.90;;;;;;5094844;28;19904;-73
2021/03/10 03:53:00;;;;;;;;;;;4.50;99.90;;;;;;5078418;28;19904;-74
2021/03/10 03:55:25;;;;;;;;;;;4.40;99.90;;;;;;5080378;28;19914;-73
2021/03/10 03:57:51;;;;;;;;;;;4.40;99.90;;;;;;5094367;28;19908;-72
2021/03/10 04:00:20;;;;;;;;;;;4.40;99.90;;;;;;5093999;28;19915;-72
2021/03/10 04:02:45;;;;;;;;;;;4.40;99.90;;;;;;5094372;28;19904;-73
2021/03/10 04:05:12;;;;;;;;;;;4.40;99.90;;;;;;5093621;28;20293;-73
2021/03/10 04:07:51;;;;;;;;;;;4.30;99.90;;;;;;5093987;28;19957;-73
2021/03/10 04:10:17;;;;;;;;;;;4.40;99.90;;;;;;5094153;28;20369;-73
2021/03/10 04:12:43;;;;;;;;;;;4.40;99.90;;;;;;5075703;28;19907;-71
2021/03/10 04:15:11;;;;;;;;;;;4.40;99.90;;;;;;5093890;28;19961;-72
2021/03/10 04:17:36;;;;;;;;;;;4.50;99.90;;;;;;5093805;28;20434;-71
2021/03/10 04:20:05;;;;;;;;;;;4.60;99.90;;;;;;5093830;28;19908;-70
2021/03/10 04:22:30;;;;;;;;;;;4.40;99.90;;;;;;5094049;28;20349;-71
2021/03/10 04:24:56;;;;;;;;;;;4.30;99.90;;;;;;5076238;28;19908;-71
2021/03/10 04:27:21;;;;;;;;;;;4.20;99.90;;;;;;5093576;28;19958;-71
2021/03/10 04:29:47;;;;;;;;;;;4.10;99.90;;;;;;5093951;28;19910;-72
2021/03/10 04:32:12;;;;;;;;;;;3.90;99.90;;;;;;5093877;28;19908;-72
2021/03/10 04:34:38;;;;;;;;;;;3.80;99.90;;;;;;5093299;28;19951;-72
2021/03/10 04:37:03;;;;;;;;;;;3.90;99.90;;;;;;5093581;28;20401;-72
2021/03/10 04:39:29;;;;;;;;;;;3.80;99.90;;;;;;5093466;28;20353;-71
2021/03/10 04:41:54;;;;;;;;;;;3.80;99.90;;;;;;5081717;28;20380;-72
2021/03/10 04:44:20;;;;;;;;;;;3.90;99.90;;;;;;5072864;28;19905;-70
2021/03/10 04:46:46;;;;;;;;;;;3.90;99.90;;;;;;5073463;28;20281;-74
2021/03/10 04:49:11;;;;;;;;;;;3.90;99.90;;;;;;5072855;28;19995;-71
2021/03/10 04:51:37;;;;;;;;;;;4.00;99.90;;;;;;5073239;28;19996;-70
2021/03/10 04:54:02;;;;;;;;;;;4.10;99.90;;;;;;5073339;28;19911;-71
2021/03/10 04:56:28;;;;;;;;;;;4.10;99.90;;;;;;5070911;28;20341;-72
2021/03/10 04:58:53;;;;;;;;;;;4.20;99.90;;;;;;5093583;28;19914;-71
2021/03/10 05:01:19;;;;;;;;;;;4.20;99.90;;;;;;5093665;28;20273;-73
2021/03/10 05:03:45;;;;;;;;;;;4.20;99.90;;;;;;5093617;28;19946;-70
2021/03/10 05:06:10;;;;;;;;;;;4.30;99.90;;;;;;5096296;28;19950;-70
2021/03/10 05:08:36;;;;;;;;;;;4.30;99.90;;;;;;5097219;28;19955;-71
2021/03/10 05:11:02;;;;;;;;;;;4.30;99.90;;;;;;5097689;28;19904;-72
2021/03/10 05:13:28;;;;;;;;;;;4.30;99.90;;;;;;5097455;28;19904;-70
2021/03/10 05:15:53;;;;;;;;;;;4.30;99.90;;;;;;5097070;28;19985;-70
2021/03/10 05:18:19;;;;;;;;;;;4.20;99.90;;;;;;5097415;28;19908;-71
2021/03/10 05:20:45;;;;;;;;;;;4.00;99.90;;;;;;5097440;28;20361;-71
2021/03/10 05:23:10;;;;;;;;;;;3.90;99.90;;;;;;5097522;28;19904;-71
2021/03/10 05:25:36;;;;;;;;;;;3.70;99.90;;;;;;5097211;28;20326;-72
2021/03/10 05:28:01;;;;;;;;;;;3.60;99.90;;;;;;5097542;28;20013;-71
2021/03/10 05:30:27;;;;;;;;;;;3.50;99.90;;;;;;5096957;28;19911;-71
2021/03/10 05:32:52;;;;;;;;;;;3.40;99.90;;;;;;5098345;28;20261;-71
2021/03/10 05:35:18;;;;;;;;;;;3.40;99.90;;;;;;5098706;28;19911;-71
2021/03/10 05:37:44;;;;;;;;;;;3.40;99.90;;;;;;5096391;28;20025;-72
2021/03/10 05:40:09;;;;;;;;;;;3.30;99.90;;;;;;5096810;28;19939;-72
2021/03/10 05:42:39;;;;;;;;;;;3.30;99.90;;;;;;5093920;28;20346;-72
2021/03/10 05:45:05;;;;;;;;;;;3.30;99.90;;;;;;5086059;28;19904;-72
2021/03/10 05:47:31;;;;;;;;;;;3.30;99.90;;;;;;5095516;28;19911;-72
2021/03/10 05:49:57;;;;;;;;;;;3.30;99.90;;;;;;5078559;28;19904;-72
2021/03/10 05:52:22;;;;;;;;;;;3.20;99.90;;;;;;5095284;28;20350;-71
2021/03/10 05:54:50;;;;;;;;;;;3.20;99.90;;;;;;5081946;28;19904;-70
2021/03/10 05:57:17;;;;;;;;;;;3.20;99.90;;;;;;5096352;28;19994;-71
2021/03/10 05:59:43;;;;;;;;;;;3.20;99.90;;;;;;5096722;28;19915;-71
2021/03/10 06:02:08;;;;;;;;;;;3.20;99.90;;;;;;5096336;28;19904;-71
2021/03/10 06:04:37;;;;;;;;;;;3.20;99.90;;;;;;5096351;28;19903;-72
2021/03/10 06:07:03;;;;;;;;;;;3.20;99.90;;;;;;5096481;28;19957;-70
2021/03/10 06:09:28;;;;;;;;;;;3.20;99.90;;;;;;5096497;28;19907;-72
2021/03/10 06:11:55;;;;;;;;;;;3.20;99.90;;;;;;5095799;28;20269;-70
2021/03/10 06:14:21;;;;;;;;;;;3.20;99.90;;;;;;5096123;28;19916;-71
2021/03/10 06:16:47;;;;;;;;;;;3.40;99.90;;;;;;5095623;28;20046;-71
2021/03/10 06:19:13;;;;;;;;;;;3.10;99.90;;;;;;5095958;28;19912;-72
2021/03/10 06:21:50;;;;;;;;;;;3.10;99.90;;;;;;5096405;28;19911;-72
2021/03/10 06:24:16;;;;;;;;;;;2.50;99.90;;;;;;5097443;28;20006;-71
2021/03/10 06:26:45;;;;;;;;;;;3.20;99.90;;;;;;5097367;28;19959;-71
2021/03/10 06:29:15;;;;;;;;;;;3.20;99.90;;;;;;5098793;28;20379;-70
2021/03/10 06:31:42;;;;;;;;;;;3.30;99.90;;;;;;5097377;28;19905;-71
2021/03/10 06:34:07;;;;;;;;;;;3.30;99.90;;;;;;5092336;28;20262;-73
2021/03/10 06:36:34;;;;;;;;;;;3.20;99.90;;;;;;5084812;28;19908;-71
2021/03/10 06:39:00;;;;;;;;;;;3.30;99.90;;;;;;5095575;28;19908;-70
2021/03/10 06:41:44;;;;;;;;;;;3.40;99.90;;;;;;5059530;28;20010;-71
2021/03/10 06:44:15;;;;;;;;;;;3.40;99.90;;;;;;5073935;28;19912;-72
2021/03/10 06:46:59;;;;;;;;;;;3.70;99.90;;;;;;5056128;28;19970;-71
2021/03/10 06:49:25;;;;;;;;;;;3.80;99.90;;;;;;5073715;28;19905;-70
2021/03/10 06:51:51;;;;;;;;;;;3.80;99.90;;;;;;5073844;28;19934;-71
2021/03/10 06:54:16;;;;;;;;;;;3.90;99.90;;;;;;5073461;28;19961;-71
2021/03/10 06:56:42;;;;;;;;;;;3.90;99.90;;;;;;5073634;28;20406;-71
2021/03/10 06:59:08;;;;;;;;;;;3.80;99.90;;;;;;5055847;28;20388;-71
2021/03/10 07:01:40;;;;;;;;;;;3.80;99.90;;;;;;5074109;28;20349;-73
2021/03/10 07:04:07;;;;;;;;;;;3.80;99.90;;;;;;5075041;28;20366;-76
2021/03/10 07:06:33;;;;;;;;;;;3.90;99.90;;;;;;5074787;28;19958;-74
2021/03/10 07:08:58;;;;;;;;;;;3.90;99.90;;;;;;5074592;28;19918;-73
2021/03/10 07:11:24;;;;;;;;;;;4.10;99.90;;;;;;5075127;28;19911;-73
2021/03/10 07:13:50;;;;;;;;;;;4.00;99.90;;;;;;5074497;28;19909;-73
2021/03/10 07:16:16;;;;;;;;;;;4.00;99.90;;;;;;5074211;28;20005;-72
2021/03/10 07:18:43;;;;;;;;;;;4.10;99.90;;;;;;5088251;28;20390;-71
2021/03/10 07:21:10;;;;;;;;;;;4.20;99.90;;;;;;5074202;28;20338;-74
2021/03/10 07:23:38;;;;;;;;;;;4.40;99.90;;;;;;5077381;28;19916;-70
2021/03/10 07:26:04;;;;;;;;;;;4.40;99.90;;;;;;5075831;28;20016;-73
2021/03/10 07:28:31;;;;;;;;;;;4.50;99.90;;;;;;5074799;28;19912;-73
2021/03/10 07:30:57;;;;;;;;;;;4.50;99.90;;;;;;5058276;28;19924;-74
2021/03/10 07:33:23;;;;;;;;;;;4.60;99.90;;;;;;5057434;28;20358;-76
2021/03/10 07:35:59;;;;;;;;;;;4.60;99.90;;;;;;5078280;28;20523;-74
2021/03/10 07:38:36;;;;;;;;;;;4.60;99.90;;;;;;5083421;28;19966;-73
2021/03/10 07:41:04;;;;;;;;;;;4.60;99.90;;;;;;5087915;28;19999;-74
2021/03/10 07:43:37;;;;;;;;;;;4.70;99.90;;;;;;5074100;28;20247;-74
2021/03/10 07:46:03;;;;;;;;;;;4.60;99.90;;;;;;5074302;28;19904;-73
2021/03/10 07:48:30;;;;;;;;;;;4.60;99.90;;;;;;5060242;28;19905;-76
2021/03/10 07:50:55;;;;;;;;;;;4.70;99.90;;;;;;5089284;28;19904;-78
2021/03/10 07:53:21;;;;;;;;;;;4.80;99.90;;;;;;5073857;28;20353;-74
2021/03/10 07:55:48;;;;;;;;;;;4.70;99.90;;;;;;5066125;28;19953;-74
2021/03/10 07:58:34;;;;;;;;;;;4.80;99.90;;;;;;5093753;28;19969;-74
2021/03/10 08:00:59;;;;;;;;;;;5.00;99.90;;;;;;5093850;28;19915;-72
2021/03/10 08:03:32;;;;;;;;;;;5.10;99.90;;;;;;5094482;28;19904;-84
2021/03/10 08:06:04;;;;;;;;;;;5.10;99.90;;;;;;5093986;28;20002;-74
2021/03/10 08:08:49;;;;;;;;;;;5.20;99.90;;;;;;5093775;28;20369;-75
2021/03/10 08:11:15;;;;;;;;;;;5.50;99.90;;;;;;5094142;28;19904;-76
2021/03/10 08:13:41;;;;;;;;;;;5.70;99.90;;;;;;5075675;28;19995;-73
2021/03/10 08:16:08;;;;;;;;;;;5.60;99.90;;;;;;5094306;28;19952;-73
2021/03/10 08:18:34;;;;;;;;;;;5.50;99.90;;;;;;5081513;28;19916;-74
2021/03/10 08:21:07;;;;;;;;;;;5.60;99.90;;;;;;5075367;28;20388;-74
2021/03/10 08:23:33;;;;;;;;;;;5.50;99.90;;;;;;5077412;28;19916;-75
2021/03/10 08:25:58;;;;;;;;;;;5.60;99.90;;;;;;5072353;28;20258;-74
2021/03/10 08:28:24;;;;;;;;;;;5.60;99.90;;;;;;5072401;28;20051;-74
2021/03/10 08:30:50;;;;;;;;;;;5.70;99.90;;;;;;5077177;28;19912;-74
2021/03/10 08:33:15;;;;;;;;;;;5.80;99.90;;;;;;5076616;28;19915;-74
2021/03/10 08:35:49;;;;;;;;;;;5.90;99.90;;;;;;5072445;28;19908;-72
2021/03/10 08:38:15;;;;;;;;;;;5.80;99.90;;;;;;5074154;28;19915;-74
2021/03/10 08:40:41;;;;;;;;;;;5.50;99.90;;;;;;5072245;28;19917;-74
2021/03/10 08:43:07;;;;;;;;;;;5.40;99.90;;;;;;5071469;28;19991;-74
2021/03/10 08:45:34;;;;;;;;;;;5.40;99.90;;;;;;5072992;28;20390;-73
2021/03/10 08:48:00;;;;;;;;;;;5.40;99.90;;;;;;5055401;28;19996;-74
2021/03/10 08:50:27;;;;;;;;;;;5.40;99.90;;;;;;5073344;28;19905;-74
2021/03/10 08:52:53;;;;;;;;;;;5.60;99.90;;;;;;5072870;28;19954;-72
2021/03/10 08:55:21;;;;;;;;;;;5.70;99.90;;;;;;5078193;28;19944;-73
2021/03/10 08:57:47;;;;;;;;;;;5.70;99.90;;;;;;5067410;28;19916;-73
2021/03/10 09:00:23;;;;;;;;;;;5.60;99.90;;;;;;5076466;28;19939;-75
2021/03/10 09:02:49;;;;;;;;;;;5.60;99.90;;;;;;5072839;28;19976;-73
2021/03/10 09:05:16;;;;;;;;;;;5.60;99.90;;;;;;5072978;28;19911;-74
2021/03/10 09:07:42;;;;;;;;;;;5.80;99.90;;;;;;5076318;28;20006;-75
2021/03/10 09:10:09;;;;;;;;;;;5.90;99.90;;;;;;5059540;28;20345;-73
2021/03/10 09:12:38;;;;;;;;;;;5.80;99.90;;;;;;5059285;28;19965;-75
2021/03/10 09:15:11;;;;;;;;;;;5.70;99.90;;;;;;5084477;28;19977;-74
2021/03/10 09:17:36;;;;;;;;;;;5.70;99.90;;;;;;5083445;28;19965;-71
2021/03/10 09:20:11;;;;;;;;;;;5.50;99.90;;;;;;5082469;28;20282;-73
2021/03/10 09:22:46;;;;;;;;;;;5.60;99.90;;;;;;5076645;28;19936;-72
2021/03/10 09:25:15;;;;;;;;;;;5.30;99.90;;;;;;5087909;28;19905;-72
2021/03/10 09:27:41;;;;;;;;;;;5.20;99.90;;;;;;5082350;28;20321;-72
2021/03/10 09:30:12;;;;;;;;;;;5.20;99.90;;;;;;5081786;28;19995;-74
2021/03/10 09:32:40;;;;;;;;;;;5.20;99.90;;;;;;5057159;28;19976;-72
2021/03/10 09:35:12;;;;;;;;;;;5.00;99.90;;;;;;5078362;28;20259;-74
2021/03/10 09:37:44;;;;;;;;;;;5.10;99.90;;;;;;5082387;28;20362;-74
2021/03/10 09:40:10;;;;;;;;;;;5.20;99.90;;;;;;5055270;28;19955;-73
2021/03/10 09:42:36;;;;;;;;;;;5.30;99.90;;;;;;5073058;28;20263;-73
2021/03/10 09:45:02;;;;;;;;;;;5.30;99.90;;;;;;5073344;28;19950;-74
2021/03/10 09:47:28;;;;;;;;;;;5.50;99.90;;;;;;5069835;28;19973;-73
2021/03/10 09:49:57;;;;;;;;;;;5.70;99.90;;;;;;5079019;28;19908;-73
2021/03/10 09:52:32;;;;;;;;;;;5.70;99.90;;;;;;5088931;28;20349;-73
2021/03/10 09:54:58;;;;;;;;;;;5.90;99.90;;;;;;5081174;28;19917;-74
2021/03/10 09:57:25;;;;;;;;;;;6.00;99.90;;;;;;5077920;28;19919;-72
2021/03/10 09:59:50;;;;;;;;;;;6.30;99.90;;;;;;5077114;28;19927;-71
2021/03/10 10:02:16;;;;;;;;;;;6.70;99.90;;;;;;5077324;28;19916;-72
2021/03/10 10:04:42;;;;;;;;;;;7.00;99.90;;;;;;5062524;28;19912;-73
2021/03/10 10:07:09;;;;;;;;;;;7.20;99.90;;;;;;5077939;28;19909;-78
2021/03/10 10:09:35;;;;;;;;;;;7.20;99.90;;;;;;5074895;28;19995;-72
2021/03/10 10:12:00;;;;;;;;;;;7.30;99.90;;;;;;5078637;28;19908;-72
2021/03/10 10:14:26;;;;;;;;;;;7.40;99.90;;;;;;5077292;28;20011;-71
2021/03/10 10:16:51;;;;;;;;;;;7.50;99.40;;;;;;5077950;28;20340;-72
2021/03/10 10:19:17;;;;;;;;;;;7.30;91.70;;;;;;5078773;28;19930;-73
2021/03/10 10:21:47;;;;;;;;;;;7.50;91.80;;;;;;5076786;28;19904;-72
2021/03/10 10:24:13;;;;;;;;;;;7.40;94.90;;;;;;5075104;28;19909;-74
2021/03/10 10:26:39;;;;;;;;;;;7.50;87.00;;;;;;5081738;28;19912;-73
2021/03/10 10:29:05;;;;;;;;;;;7.80;99.90;;;;;;5083118;28;19999;-72
2021/03/10 10:31:30;;;;;;;;;;;7.90;84.30;;;;;;5077840;28;19911;-72
2021/03/10 10:33:56;;;;;;;;;;;8.00;86.10;;;;;;5060696;28;19959;-73
2021/03/10 10:36:22;;;;;;;;;;;8.00;78.20;;;;;;5079777;28;19903;-74
2021/03/10 10:38:47;;;;;;;;;;;7.60;71.30;;;;;;5059987;28;19908;-73
2021/03/10 10:41:13;;;;;;;;;;;7.50;74.20;;;;;;5079217;28;19915;-72
2021/03/10 10:43:39;;;;;;;;;;;7.30;69.70;;;;;;5060371;28;19937;-73
2021/03/10 10:46:04;;;;;;;;;;;7.40;74.10;;;;;;5079001;28;20395;-72
2021/03/10 10:48:30;;;;;;;;;;;7.60;70.00;;;;;;5078262;28;19926;-73
2021/03/10 10:50:55;;;;;;;;;;;7.70;67.30;;;;;;5066224;28;19908;-72
2021/03/10 10:53:21;;;;;;;;;;;7.70;67.30;;;;;;5079092;28;20358;-70
2021/03/10 10:55:47;;;;;;;;;;;7.80;67.10;;;;;;5094558;28;19915;-73
2021/03/10 10:58:12;;;;;;;;;;;8.00;67.70;;;;;;5094031;28;19912;-76
2021/03/10 11:00:38;;;;;;;;;;;8.00;63.60;;;;;;5089302;28;19912;-71
2021/03/10 11:03:04;;;;;;;;;;;8.00;62.80;;;;;;5072700;28;19904;-72
2021/03/10 11:05:29;;;;;;;;;;;7.90;62.60;;;;;;5072348;28;20320;-74
2021/03/10 11:07:55;;;;;;;;;;;7.70;61.00;;;;;;5088869;28;19965;-73
2021/03/10 11:10:20;;;;;;;;;;;7.60;60.70;;;;;;5074969;28;19962;-71
2021/03/10 11:12:46;;;;;;;;;;;7.60;61.10;;;;;;5078623;28;19916;-72
2021/03/10 11:15:12;;;;;;;;;;;7.60;60.60;;;;;;5085232;28;19920;-78
2021/03/10 11:17:37;;;;;;;;;;;7.60;62.00;;;;;;5063713;28;19944;-74
2021/03/10 11:20:04;;;;;;;;;;;7.60;62.60;;;;;;5085319;28;20366;-70
2021/03/10 11:22:30;;;;;;;;;;;7.40;61.70;;;;;;5074457;28;19908;-74
2021/03/10 11:24:55;;;;;;;;;;;7.60;61.00;;;;;;5075067;28;19904;-73
2021/03/10 11:27:22;;;;;;;;;;;7.60;61.80;;;;;;5055717;28;19904;-71
2021/03/10 11:29:48;;;;;;;;;;;7.60;63.20;;;;;;5073639;28;19999;-73
2021/03/10 11:32:13;;;;;;;;;;;7.40;58.40;;;;;;5078288;28;20380;-71
2021/03/10 11:34:39;;;;;;;;;;;7.30;58.20;;;;;;5055936;28;20258;-71
2021/03/10 11:37:05;;;;;;;;;;;7.30;59.00;;;;;;5074370;28;19909;-74
2021/03/10 11:39:30;;;;;;;;;;;7.30;57.00;;;;;;5073734;28;19912;-72
2021/03/10 11:41:57;;;;;;;;;;;7.30;57.40;;;;;;5055993;28;19908;-75
2021/03/10 11:44:23;;;;;;;;;;;7.30;57.90;;;;;;5073825;28;19911;-74
2021/03/10 11:46:48;;;;;;;;;;;7.00;57.20;;;;;;5073983;28;19908;-73
2021/03/10 11:49:14;;;;;;;;;;;7.20;58.10;;;;;;5073430;28;20330;-75
2021/03/10 11:51:39;;;;;;;;;;;7.20;57.50;;;;;;5075628;28;20303;-77
2021/03/10 11:54:05;;;;;;;;;;;7.20;58.30;;;;;;5057131;28;19948;-75
2021/03/10 11:56:31;;;;;;;;;;;7.10;58.70;;;;;;5091251;28;19911;-75
2021/03/10 11:58:56;;;;;;;;;;;7.40;59.60;;;;;;5094533;28;19912;-71
2021/03/10 12:01:23;;;;;;;;;;;7.50;60.00;;;;;;5093893;28;19938;-73
2021/03/10 12:03:49;;;;;;;;;;;7.70;59.70;;;;;;5093544;28;19945;-71
2021/03/10 12:06:14;;;;;;;;;;;7.80;62.00;;;;;;5094222;28;19911;-75
2021/03/10 12:08:40;;;;;;;;;;;7.90;61.00;;;;;;5093702;28;19997;-71
2021/03/10 12:11:05;;;;;;;;;;;8.00;60.80;;;;;;5076003;28;20462;-72
2021/03/10 12:13:31;;;;;;;;;;;7.70;58.00;;;;;;5075853;28;19933;-72
2021/03/10 12:15:57;;;;;;;;;;;7.80;58.60;;;;;;5092642;28;19927;-74
2021/03/10 12:18:23;;;;;;;;;;;7.70;58.00;;;;;;5093982;28;19919;-72
2021/03/10 12:20:49;;;;;;;;;;;7.50;56.90;;;;;;5093475;28;19908;-73
2021/03/10 12:23:15;;;;;;;;;;;7.50;58.10;;;;;;5093493;28;19931;-71
2021/03/10 12:25:41;;;;;;;;;;;7.50;56.80;;;;;;5075509;28;19910;-70
2021/03/10 12:28:06;;;;;;;;;;;7.60;56.60;;;;;;5094328;28;19994;-72
2021/03/10 12:30:32;;;;;;;;;;;7.60;56.50;;;;;;5094005;28;19904;-73
2021/03/10 12:32:58;;;;;;;;;;;7.60;57.10;;;;;;5061527;28;20348;-73
2021/03/10 12:35:23;;;;;;;;;;;7.60;57.40;;;;;;5073566;28;19991;-73
2021/03/10 12:37:49;;;;;;;;;;;7.50;56.30;;;;;;5073106;28;19912;-72
2021/03/10 12:40:15;;;;;;;;;;;7.60;57.00;;;;;;5073214;28;20386;-70
2021/03/10 12:42:40;;;;;;;;;;;7.60;55.80;;;;;;5073680;28;19904;-74
2021/03/10 12:45:07;;;;;;;;;;;7.60;55.70;;;;;;5055204;28;19915;-70
2021/03/10 12:47:32;;;;;;;;;;;7.60;55.80;;;;;;5073043;28;19995;-71
2021/03/10 12:49:59;;;;;;;;;;;7.50;55.20;;;;;;5073027;28;19977;-73
2021/03/10 12:52:25;;;;;;;;;;;7.60;54.80;;;;;;5073484;28;19905;-72
2021/03/10 12:54:51;;;;;;;;;;;7.50;55.40;;;;;;5075336;28;19974;-73
2021/03/10 12:57:16;;;;;;;;;;;7.60;55.90;;;;;;5092787;28;19912;-71
2021/03/10 12:59:42;;;;;;;;;;;7.70;57.40;;;;;;5094096;28;19936;-72
2021/03/10 13:02:07;;;;;;;;;;;7.70;55.60;;;;;;5093133;28;19904;-72
2021/03/10 13:04:33;;;;;;;;;;;7.70;54.80;;;;;;5093369;28;19908;-72
2021/03/10 13:06:59;;;;;;;;;;;7.70;55.10;;;;;;5093905;28;19911;-72
2021/03/10 13:09:24;;;;;;;;;;;7.70;55.50;;;;;;5093216;28;19904;-71
2021/03/10 13:11:50;;;;;;;;;;;7.80;55.20;;;;;;5093194;28;19915;-71
2021/03/10 13:14:17;;;;;;;;;;;7.60;53.30;;;;;;5075289;28;19923;-71
2021/03/10 13:16:42;;;;;;;;;;;7.70;54.20;;;;;;5075152;28;19904;-71
2021/03/10 13:19:08;;;;;;;;;;;7.60;53.60;;;;;;5092961;28;19919;-72
2021/03/10 13:21:33;;;;;;;;;;;7.60;53.60;;;;;;5093053;28;20004;-70
2021/03/10 13:23:59;;;;;;;;;;;7.60;53.70;;;;;;5056011;28;20307;-71
2021/03/10 13:26:25;;;;;;;;;;;7.60;53.80;;;;;;5056692;28;19908;-73
2021/03/10 13:28:52;;;;;;;;;;;7.60;53.60;;;;;;5058317;28;19908;-72
2021/03/10 13:31:18;;;;;;;;;;;7.60;53.70;;;;;;5077481;28;20389;-74
2021/03/10 13:33:44;;;;;;;;;;;7.70;53.80;;;;;;5058723;28;20027;-74
2021/03/10 13:36:10;;;;;;;;;;;7.80;54.60;;;;;;5059707;28;19904;-72
2021/03/10 13:38:35;;;;;;;;;;;8.00;54.60;;;;;;5076459;28;19970;-70
2021/03/10 13:41:01;;;;;;;;;;;8.20;54.50;;;;;;5075078;28;19963;-72
2021/03/10 13:43:27;;;;;;;;;;;8.10;54.00;;;;;;5066983;28;19966;-69
2021/03/10 13:45:53;;;;;;;;;;;8.00;54.10;;;;;;5075946;28;19952;-71
2021/03/10 13:48:19;;;;;;;;;;;8.00;54.00;;;;;;5074838;28;19915;-75
2021/03/10 13:50:45;;;;;;;;;;;8.00;53.40;;;;;;5074752;28;19916;-72
2021/03/10 13:53:11;;;;;;;;;;;7.70;53.40;;;;;;5073017;28;20516;-72
2021/03/10 13:55:38;;;;;;;;;;;7.90;53.60;;;;;;5083381;28;19998;-73
2021/03/10 13:58:03;;;;;;;;;;;7.90;54.00;;;;;;5067640;28;20273;-73
2021/03/10 14:00:29;;;;;;;;;;;7.90;54.10;;;;;;5083388;28;19916;-73
2021/03/10 14:02:55;;;;;;;;;;;8.00;54.10;;;;;;5058217;28;19911;-71
2021/03/10 14:05:21;;;;;;;;;;;7.90;53.30;;;;;;5084356;28;19912;-72
2021/03/10 14:07:47;;;;;;;;;;;7.90;53.50;;;;;;5084099;28;19908;-74
2021/03/10 14:10:12;;;;;;;;;;;8.10;54.50;;;;;;5079712;28;19915;-72
2021/03/10 14:12:39;;;;;;;;;;;8.10;53.60;;;;;;5081116;28;19907;-73
2021/03/10 14:15:05;;;;;;;;;;;8.30;52.90;;;;;;5080203;28;19916;-74
2021/03/10 14:17:31;;;;;;;;;;;8.60;54.90;;;;;;5056553;28;19912;-73
2021/03/10 14:19:56;;;;;;;;;;;8.60;55.60;;;;;;5074580;28;19913;-74
2021/03/10 14:22:22;;;;;;;;;;;8.90;54.00;;;;;;5056006;28;19904;-72
2021/03/10 14:24:48;;;;;;;;;;;8.90;52.90;;;;;;5073828;28;19911;-75
2021/03/10 14:27:13;;;;;;;;;;;8.50;51.80;;;;;;5075718;28;19905;-74
2021/03/10 14:29:39;;;;;;;;;;;8.50;52.20;;;;;;5057389;28;19908;-75